Schneifelwetter: Wetterstation Hallschlag, 537 m . NN
Wetterdaten: Freitag, 09.11.2012
Datum Zeit Temp. A. Feuchte A. Luftdruck Regen Wind Richtung Richtung Sonnenschein T Regen Taupunkt Windchill
09.11.2012 00:00 4,2 C 96 % 1017 hPa 0,0 l/m 9,9 km/h (2 Bft) SW45 235 0 min 0 min 3,6 C 1,3 C
09.11.2012 00:15 4,2 C 96 % 1017 hPa 0,0 l/m 8,6 km/h (2 Bft) SW22.5 225 0 min 0 min 3,6 C 2,3 C
09.11.2012 00:30 4,2 C 96 % 1017 hPa 0,0 l/m 9,2 km/h (2 Bft) SW22.5 235 0 min 0 min 3,6 C 1,8 C
09.11.2012 00:45 4,1 C 96 % 1016 hPa 0,0 l/m 15,8 km/h (3 Bft) SW22.5 230 0 min 0 min 3,5 C -2,4 C
09.11.2012 01:00 4,1 C 96 % 1016 hPa 0,0 l/m 10,0 km/h (2 Bft) W-SW22.5 240 0 min 0 min 3,5 C 1,1 C
09.11.2012 01:15 4,1 C 96 % 1016 hPa 0,0 l/m 11,3 km/h (2 Bft) W-SW22.5 240 0 min 0 min 3,5 C 0,2 C
09.11.2012 01:30 4,1 C 96 % 1016 hPa 0,0 l/m 8,6 km/h (2 Bft) W-SW22.5 240 0 min 0 min 3,5 C 2,2 C
09.11.2012 01:45 4,1 C 96 % 1016 hPa 0,0 l/m 11,2 km/h (2 Bft) S-SW45 200 0 min 0 min 3,5 C 0,2 C
09.11.2012 02:00 4,1 C 97 % 1016 hPa 0,0 l/m 11,8 km/h (2 Bft) SW22.5 235 0 min 0 min 3,7 C -0,2 C
09.11.2012 02:15 4,1 C 97 % 1016 hPa 0,0 l/m 9,5 km/h (2 Bft) SW22.5 220 0 min 0 min 3,7 C 1,4 C
09.11.2012 02:30 4,1 C 97 % 1016 hPa 0,0 l/m 8,0 km/h (2 Bft) SW22.5 220 0 min 0 min 3,7 C 2,7 C
09.11.2012 02:45 4,2 C 97 % 1016 hPa 0,0 l/m 7,8 km/h (2 Bft) W-SW22.5 250 0 min 0 min 3,8 C 2,9 C
09.11.2012 03:01 4,2 C 97 % 1016 hPa 0,0 l/m 8,2 km/h (2 Bft) SW22.5 225 0 min 0 min 3,8 C 2,6 C
09.11.2012 03:16 4,2 C 97 % 1016 hPa 0,0 l/m 1,4 km/h (1 Bft) W-SW22.5 240 0 min 0 min 3,8 C 4,2 C
09.11.2012 03:31 4,2 C 97 % 1016 hPa 0,0 l/m 0,0 km/h (0 Bft) W-SW 245 0 min 0 min 3,8 C 4,2 C
09.11.2012 03:46 4,2 C 97 % 1016 hPa 0,0 l/m 0,0 km/h (0 Bft) W-SW 245 0 min 0 min 3,8 C 4,2 C
09.11.2012 04:01 4,3 C 97 % 1016 hPa 0,0 l/m 0,0 km/h (0 Bft) W-SW 245 0 min 0 min 3,9 C 4,3 C
09.11.2012 04:16 4,3 C 97 % 1016 hPa 0,0 l/m 1,0 km/h (0 Bft) S 180 0 min 0 min 3,9 C 4,3 C
09.11.2012 04:31 4,3 C 97 % 1016 hPa 0,0 l/m 10,4 km/h (2 Bft) W-SW 250 0 min 0 min 3,9 C 1,0 C
09.11.2012 04:46 4,3 C 97 % 1016 hPa 0,0 l/m 14,5 km/h (3 Bft) W-SW 250 0 min 0 min 3,9 C -1,5 C
09.11.2012 05:01 4,3 C 97 % 1016 hPa 0,0 l/m 7,6 km/h (2 Bft) SW22.5 230 0 min 0 min 3,9 C 3,2 C
09.11.2012 05:16 4,3 C 97 % 1016 hPa 0,0 l/m 7,8 km/h (2 Bft) SW22.5 230 0 min 0 min 3,9 C 3,0 C
09.11.2012 05:30 4,3 C 97 % 1016 hPa 0,0 l/m 7,6 km/h (2 Bft) W-SW 240 0 min 0 min 3,9 C 3,2 C
09.11.2012 05:45 4,3 C 97 % 1016 hPa 0,0 l/m 7,9 km/h (2 Bft) SW22.5 230 0 min 0 min 3,9 C 3,0 C
09.11.2012 06:00 4,3 C 97 % 1016 hPa 0,0 l/m 0,0 km/h (0 Bft) S-SW22.5 205 0 min 0 min 3,9 C 4,3 C
09.11.2012 06:15 4,3 C 97 % 1016 hPa 0,0 l/m 6,5 km/h (2 Bft) S-SW22.5 210 0 min 0 min 3,9 C 4,2 C
09.11.2012 06:30 4,2 C 97 % 1016 hPa 0,0 l/m 4,0 km/h (1 Bft) W-SW 240 0 min 0 min 3,8 C 4,2 C
09.11.2012 06:45 4,2 C 97 % 1016 hPa 0,0 l/m 4,1 km/h (1 Bft) W-SW 250 0 min 0 min 3,8 C 4,2 C
09.11.2012 07:00 4,2 C 97 % 1016 hPa 0,0 l/m 0,0 km/h (0 Bft) W-SW 250 0 min 0 min 3,8 C 4,2 C
09.11.2012 07:15 4,1 C 97 % 1016 hPa 0,0 l/m 0,0 km/h (0 Bft) S-SO 160 0 min 0 min 3,7 C 4,1 C
09.11.2012 07:30 4,1 C 97 % 1016 hPa 0,0 l/m 0,0 km/h (0 Bft) S-SO 160 0 min 0 min 3,7 C 4,1 C
09.11.2012 07:45 4,0 C 97 % 1016 hPa 0,0 l/m 0,0 km/h (0 Bft) S-SO 155 0 min 0 min 3,6 C 4,0 C
09.11.2012 08:00 4,0 C 97 % 1016 hPa 0,0 l/m 0,0 km/h (0 Bft) S-SO 155 0 min 0 min 3,6 C 4,0 C
09.11.2012 08:15 4,1 C 97 % 1016 hPa 0,0 l/m 0,0 km/h (0 Bft) S-SO 155 0 min 0 min 3,7 C 4,1 C
09.11.2012 08:30 4,2 C 97 % 1016 hPa 0,0 l/m 0,0 km/h (0 Bft) S-SO 155 0 min 0 min 3,8 C 4,2 C
09.11.2012 08:46 4,3 C 97 % 1016 hPa 0,0 l/m 0,0 km/h (0 Bft) S-SO 155 0 min 0 min 3,9 C 4,3 C
09.11.2012 09:00 4,6 C 97 % 1016 hPa 0,0 l/m 0,0 km/h (0 Bft) S-SO 155 0 min 0 min 4,2 C 4,6 C
09.11.2012 09:15 4,8 C 97 % 1016 hPa 0,0 l/m 0,0 km/h (0 Bft) S-SO 155 0 min 0 min 4,4 C 4,8 C
09.11.2012 09:30 5,1 C 98 % 1016 hPa 0,0 l/m 0,1 km/h (0 Bft) S-SO 155 0 min 0 min 4,8 C 5,1 C
09.11.2012 09:45 5,2 C 97 % 1015 hPa 0,0 l/m 0,0 km/h (0 Bft) S-SO 155 0 min 0 min 4,8 C 5,2 C
09.11.2012 10:00 5,5 C 97 % 1015 hPa 0,0 l/m 8,7 km/h (2 Bft) S-SO22.5 165 0 min 0 min 5,1 C 3,6 C
09.11.2012 10:16 5,7 C 96 % 1015 hPa 0,0 l/m 9,6 km/h (2 Bft) S-SO22.5 165 0 min 0 min 5,1 C 3,1 C
09.11.2012 10:30 5,6 C 96 % 1015 hPa 0,0 l/m 11,6 km/h (2 Bft) S22.5 180 0 min 0 min 5,0 C 1,7 C
09.11.2012 10:45 5,8 C 95 % 1016 hPa 0,0 l/m 10,1 km/h (2 Bft) S22.5 180 0 min 0 min 5,1 C 2,9 C
09.11.2012 11:00 6,0 C 95 % 1015 hPa 0,0 l/m 11,8 km/h (2 Bft) S-SW45 195 0 min 0 min 5,3 C 2,0 C
09.11.2012 11:15 6,3 C 93 % 1015 hPa 0,0 l/m 9,2 km/h (2 Bft) S 190 0 min 0 min 5,3 C 4,1 C
09.11.2012 11:30 6,7 C 92 % 1015 hPa 0,0 l/m 10,8 km/h (2 Bft) S22.5 175 0 min 0 min 5,5 C 3,4 C
09.11.2012 11:46 7,2 C 90 % 1015 hPa 0,0 l/m 8,3 km/h (2 Bft) S-SO 150 0 min 0 min 5,7 C 5,7 C
09.11.2012 12:00 7,2 C 88 % 1014 hPa 0,0 l/m 14,3 km/h (3 Bft) S22.5 175 0 min 0 min 5,3 C 2,1 C
09.11.2012 12:15 7,2 C 86 % 1014 hPa 0,0 l/m 17,3 km/h (3 Bft) S22.5 170 0 min 0 min 5,0 C 0,7 C
09.11.2012 12:30 7,3 C 84 % 1014 hPa 0,0 l/m 14,0 km/h (3 Bft) S22.5 170 0 min 0 min 4,8 C 2,3 C
09.11.2012 12:45 7,1 C 83 % 1013 hPa 0,0 l/m 20,2 km/h (4 Bft) S45 175 0 min 0 min 4,4 C -0,5 C
09.11.2012 13:01 6,8 C 83 % 1013 hPa 0,0 l/m 19,7 km/h (3 Bft) S-SO45 160 0 min 0 min 4,1 C -0,7 C
09.11.2012 13:15 7,0 C 83 % 1013 hPa 0,0 l/m 20,5 km/h (4 Bft) S45 190 0 min 0 min 4,3 C -0,8 C
09.11.2012 13:30 7,2 C 83 % 1013 hPa 0,0 l/m 17,4 km/h (3 Bft) S-SW45 205 0 min 0 min 4,5 C 0,7 C
09.11.2012 13:45 7,2 C 81 % 1012 hPa 0,0 l/m 17,3 km/h (3 Bft) S45 180 0 min 0 min 4,2 C 0,7 C
09.11.2012 14:00 7,0 C 82 % 1012 hPa 0,0 l/m 17,2 km/h (3 Bft) S-SO45 155 0 min 0 min 4,1 C 0,5 C
09.11.2012 14:15 6,6 C 82 % 1012 hPa 0,0 l/m 16,1 km/h (3 Bft) S22.5 170 0 min 0 min 3,8 C 0,5 C
09.11.2012 14:31 6,5 C 83 % 1012 hPa 0,0 l/m 17,6 km/h (3 Bft) S-SO45 160 0 min 0 min 3,8 C -0,3 C
09.11.2012 14:45 6,4 C 84 % 1012 hPa 0,0 l/m 14,8 km/h (3 Bft) S45 175 0 min 0 min 3,9 C 0,9 C
09.11.2012 15:00 6,3 C 84 % 1011 hPa 0,0 l/m 11,7 km/h (2 Bft) S-SO22.5 160 0 min 0 min 3,8 C 2,4 C
09.11.2012 15:15 6,2 C 85 % 1011 hPa 0,0 l/m 13,6 km/h (3 Bft) S22.5 170 0 min 0 min 3,9 C 1,2 C
09.11.2012 15:30 6,1 C 86 % 1011 hPa 0,0 l/m 9,0 km/h (2 Bft) S-SO 155 0 min 0 min 3,9 C 4,0 C
09.11.2012 15:45 6,0 C 86 % 1011 hPa 0,0 l/m 11,5 km/h (2 Bft) S22.5 170 0 min 0 min 3,8 C 2,2 C
09.11.2012 16:01 5,8 C 86 % 1011 hPa 0,0 l/m 12,4 km/h (3 Bft) S-SO 160 0 min 0 min 3,6 C 1,4 C
09.11.2012 16:15 5,6 C 86 % 1011 hPa 0,0 l/m 11,0 km/h (2 Bft) S22.5 170 0 min 0 min 3,4 C 2,1 C
09.11.2012 16:30 5,5 C 87 % 1011 hPa 0,0 l/m 8,9 km/h (2 Bft) S45 185 0 min 0 min 3,5 C 3,4 C
09.11.2012 16:45 5,4 C 87 % 1011 hPa 0,0 l/m 12,1 km/h (2 Bft) S-SW45 200 0 min 0 min 3,4 C 1,2 C
09.11.2012 17:00 5,1 C 88 % 1010 hPa 0,0 l/m 11,1 km/h (2 Bft) S22.5 180 0 min 0 min 3,3 C 1,4 C
09.11.2012 17:15 5,1 C 89 % 1010 hPa 0,0 l/m 10,0 km/h (2 Bft) S-SO22.5 165 0 min 0 min 3,4 C 2,2 C
09.11.2012 17:30 4,8 C 89 % 1010 hPa 0,0 l/m 13,3 km/h (3 Bft) S22.5 170 0 min 0 min 3,1 C -0,2 C
09.11.2012 17:45 4,7 C 89 % 1010 hPa 0,0 l/m 13,5 km/h (3 Bft) SW22.5 215 0 min 0 min 3,0 C -0,5 C
09.11.2012 18:00 4,7 C 89 % 1010 hPa 0,0 l/m 12,0 km/h (2 Bft) W-SW45 240 0 min 0 min 3,0 C 0,4 C
09.11.2012 18:15 4,6 C 90 % 1010 hPa 0,0 l/m 14,1 km/h (3 Bft) W-SW22.5 240 0 min 0 min 3,1 C -0,9 C
09.11.2012 18:30 4,6 C 90 % 1010 hPa 0,0 l/m 9,2 km/h (2 Bft) SW22.5 215 0 min 0 min 3,1 C 2,2 C
09.11.2012 18:45 4,3 C 90 % 1010 hPa 0,0 l/m 0,0 km/h (0 Bft) S-SW 195 0 min 0 min 2,8 C 4,3 C
09.11.2012 19:00 3,9 C 90 % 1009 hPa 0,0 l/m 0,0 km/h (0 Bft) S-SW 195 0 min 0 min 2,4 C 3,9 C
09.11.2012 19:15 3,9 C 91 % 1009 hPa 0,0 l/m 12,5 km/h (3 Bft) SW22.5 235 0 min 0 min 2,6 C -0,8 C
09.11.2012 19:30 3,9 C 91 % 1009 hPa 0,0 l/m 8,9 km/h (2 Bft) S-SW 205 0 min 0 min 2,6 C 1,7 C
09.11.2012 19:45 3,6 C 91 % 1009 hPa 0,0 l/m 8,9 km/h (2 Bft) S22.5 175 0 min 0 min 2,3 C 1,4 C
09.11.2012 20:00 3,9 C 92 % 1008 hPa 0,0 l/m 13,7 km/h (3 Bft) S 185 0 min 0 min 2,7 C -1,5 C
09.11.2012 20:15 4,3 C 92 % 1008 hPa 0,0 l/m 14,0 km/h (3 Bft) S45 175 0 min 0 min 3,1 C -1,2 C
09.11.2012 20:30 4,5 C 91 % 1008 hPa 0,0 l/m 16,3 km/h (3 Bft) S22.5 185 0 min 0 min 3,2 C -2,2 C
09.11.2012 20:45 4,6 C 90 % 1008 hPa 0,0 l/m 10,3 km/h (2 Bft) S-SW22.5 200 0 min 0 min 3,1 C 1,4 C
09.11.2012 21:00 4,7 C 89 % 1008 hPa 0,0 l/m 7,4 km/h (2 Bft) S-SW 205 0 min 0 min 3,0 C 3,8 C
09.11.2012 21:15 4,7 C 89 % 1008 hPa 0,0 l/m 15,2 km/h (3 Bft) S22.5 185 0 min 0 min 3,0 C -1,4 C
09.11.2012 21:30 4,7 C 89 % 1008 hPa 0,0 l/m 13,5 km/h (3 Bft) S22.5 185 0 min 0 min 3,0 C -0,5 C
09.11.2012 21:45 4,5 C 88 % 1008 hPa 0,0 l/m 14,5 km/h (3 Bft) S-SW45 210 0 min 0 min 2,7 C -1,3 C
09.11.2012 22:00 4,5 C 88 % 1008 hPa 0,0 l/m 12,3 km/h (3 Bft) S-SW45 195 0 min 0 min 2,7 C -0,0 C
09.11.2012 22:15 4,4 C 89 % 1007 hPa 0,0 l/m 14,9 km/h (3 Bft) SW45 230 0 min 0 min 2,7 C -1,6 C
09.11.2012 22:30 4,7 C 89 % 1007 hPa 0,0 l/m 14,0 km/h (3 Bft) S-SW22.5 205 0 min 0 min 3,0 C -0,8 C
09.11.2012 22:45 4,7 C 89 % 1007 hPa 0,0 l/m 12,1 km/h (2 Bft) S45 175 0 min 0 min 3,0 C 0,3 C
09.11.2012 23:00 4,6 C 89 % 1007 hPa 0,0 l/m 10,1 km/h (2 Bft) SW22.5 220 0 min 0 min 2,9 C 1,6 C
09.11.2012 23:15 4,6 C 89 % 1007 hPa 0,0 l/m 14,5 km/h (3 Bft) SW45 235 0 min 0 min 2,9 C -1,1 C
09.11.2012 23:30 4,9 C 89 % 1007 hPa 0,0 l/m 15,6 km/h (3 Bft) S67.5 190 0 min 0 min 3,2 C -1,3 C
09.11.2012 23:45 5,2 C 89 % 1007 hPa 0,0 l/m 17,1 km/h (3 Bft) S-SO22.5 165 0 min 0 min 3,5 C -1,7 C
_ Min-Zeit 19:45 13:45 22:15 - 03:31 - - - - 19:45 00:45
Minimum _ 3,6 C 81 % 1007 hPa - 0,0 km/h (0 Bft) - - - - 2,3 C -2,4 C
_ Max-Zeit 12:30 09:30 00:00 00:00 13:15 - - 00:00 00:00 11:46 11:46
Maximum _ 7,3 C 98 % 1017 hPa 0,0 l/m 20,5 km/h
S (4 Bft)
- - 0 min 0 min 5,7 C 5,7 C
Durchschnitt _ 5,0 C 92 % 1013 hPa #0,0 l/m 9,5 km/h (2 Bft) S - #0 min. #0 min. 3,7 C 1,8 C